sensor_id;sensor_type;location;lat;lon;timestamp;P1;durP1;ratioP1;P2;durP2;ratioP2
50773;SDS011;36745;48.544;8.918;2023-09-18T00:02:15;6.28;;;4.00;;
50773;SDS011;36745;48.544;8.918;2023-09-18T00:05:35;9.13;;;4.30;;
50773;SDS011;36745;48.544;8.918;2023-09-18T00:08:55;13.68;;;4.25;;
50773;SDS011;36745;48.544;8.918;2023-09-18T00:12:15;5.25;;;3.55;;
50773;SDS011;36745;48.544;8.918;2023-09-18T00:15:35;6.60;;;3.80;;
50773;SDS011;36745;48.544;8.918;2023-09-18T00:18:56;6.43;;;4.00;;
50773;SDS011;36745;48.544;8.918;2023-09-18T00:22:16;11.73;;;4.38;;
50773;SDS011;36745;48.544;8.918;2023-09-18T00:25:36;10.10;;;4.43;;
50773;SDS011;36745;48.544;8.918;2023-09-18T00:29:01;7.40;;;3.88;;
50773;SDS011;36745;48.544;8.918;2023-09-18T00:32:21;8.60;;;4.10;;
50773;SDS011;36745;48.544;8.918;2023-09-18T00:35:44;8.65;;;4.18;;
50773;SDS011;36745;48.544;8.918;2023-09-18T00:39:08;8.23;;;3.60;;
50773;SDS011;36745;48.544;8.918;2023-09-18T00:42:28;5.20;;;4.05;;
50773;SDS011;36745;48.544;8.918;2023-09-18T00:45:48;11.13;;;4.47;;
50773;SDS011;36745;48.544;8.918;2023-09-18T00:49:08;9.18;;;4.57;;
50773;SDS011;36745;48.544;8.918;2023-09-18T00:52:29;7.45;;;4.50;;
50773;SDS011;36745;48.544;8.918;2023-09-18T00:55:53;7.32;;;4.22;;
50773;SDS011;36745;48.544;8.918;2023-09-18T00:59:16;8.45;;;5.10;;
50773;SDS011;36745;48.544;8.918;2023-09-18T01:02:36;10.85;;;6.10;;
50773;SDS011;36745;48.544;8.918;2023-09-18T01:05:56;14.18;;;6.82;;
50773;SDS011;36745;48.544;8.918;2023-09-18T01:09:16;14.45;;;7.78;;
50773;SDS011;36745;48.544;8.918;2023-09-18T01:12:44;14.32;;;6.80;;
50773;SDS011;36745;48.544;8.918;2023-09-18T01:16:27;15.23;;;7.00;;
50773;SDS011;36745;48.544;8.918;2023-09-18T01:19:54;13.63;;;6.05;;
50773;SDS011;36745;48.544;8.918;2023-09-18T01:23:14;11.23;;;5.03;;
50773;SDS011;36745;48.544;8.918;2023-09-18T01:26:33;15.40;;;5.65;;
50773;SDS011;36745;48.544;8.918;2023-09-18T01:29:54;8.38;;;5.00;;
50773;SDS011;36745;48.544;8.918;2023-09-18T01:33:14;6.22;;;4.68;;
50773;SDS011;36745;48.544;8.918;2023-09-18T01:36:35;10.73;;;5.50;;
50773;SDS011;36745;48.544;8.918;2023-09-18T01:39:55;18.92;;;6.20;;
50773;SDS011;36745;48.544;8.918;2023-09-18T01:43:18;13.20;;;5.93;;
50773;SDS011;36745;48.544;8.918;2023-09-18T01:46:38;11.23;;;5.45;;
50773;SDS011;36745;48.544;8.918;2023-09-18T01:50:02;8.43;;;4.45;;
50773;SDS011;36745;48.544;8.918;2023-09-18T01:53:25;17.55;;;6.93;;
50773;SDS011;36745;48.544;8.918;2023-09-18T01:56:45;10.60;;;5.57;;
50773;SDS011;36745;48.544;8.918;2023-09-18T02:00:05;9.23;;;5.18;;
50773;SDS011;36745;48.544;8.918;2023-09-18T02:03:28;10.20;;;5.05;;
50773;SDS011;36745;48.544;8.918;2023-09-18T02:06:48;9.70;;;5.20;;
50773;SDS011;36745;48.544;8.918;2023-09-18T02:10:11;8.77;;;5.20;;
50773;SDS011;36745;48.544;8.918;2023-09-18T02:13:31;8.70;;;4.85;;
50773;SDS011;36745;48.544;8.918;2023-09-18T02:16:51;8.55;;;5.18;;
50773;SDS011;36745;48.544;8.918;2023-09-18T02:20:11;9.90;;;5.68;;
50773;SDS011;36745;48.544;8.918;2023-09-18T02:23:31;11.13;;;5.20;;
50773;SDS011;36745;48.544;8.918;2023-09-18T02:26:51;14.35;;;5.15;;
50773;SDS011;36745;48.544;8.918;2023-09-18T02:30:11;7.82;;;5.00;;
50773;SDS011;36745;48.544;8.918;2023-09-18T02:33:30;12.57;;;5.18;;
50773;SDS011;36745;48.544;8.918;2023-09-18T02:36:50;12.40;;;5.63;;
50773;SDS011;36745;48.544;8.918;2023-09-18T02:40:10;13.35;;;5.35;;
50773;SDS011;36745;48.544;8.918;2023-09-18T02:43:30;6.75;;;4.88;;
50773;SDS011;36745;48.544;8.918;2023-09-18T02:46:50;8.02;;;5.05;;
50773;SDS011;36745;48.544;8.918;2023-09-18T02:50:10;8.73;;;5.57;;
50773;SDS011;36745;48.544;8.918;2023-09-18T02:53:32;9.93;;;5.53;;
50773;SDS011;36745;48.544;8.918;2023-09-18T02:56:52;11.77;;;5.68;;
50773;SDS011;36745;48.544;8.918;2023-09-18T03:00:12;13.10;;;6.65;;
50773;SDS011;36745;48.544;8.918;2023-09-18T03:03:33;11.70;;;7.03;;
50773;SDS011;36745;48.544;8.918;2023-09-18T03:06:53;10.27;;;5.30;;
50773;SDS011;36745;48.544;8.918;2023-09-18T03:10:12;12.30;;;5.47;;
50773;SDS011;36745;48.544;8.918;2023-09-18T03:13:35;10.55;;;6.32;;
50773;SDS011;36745;48.544;8.918;2023-09-18T03:16:54;8.77;;;5.38;;
50773;SDS011;36745;48.544;8.918;2023-09-18T03:20:14;10.38;;;6.45;;
50773;SDS011;36745;48.544;8.918;2023-09-18T03:23:34;11.02;;;4.75;;
50773;SDS011;36745;48.544;8.918;2023-09-18T03:26:54;12.80;;;5.63;;
50773;SDS011;36745;48.544;8.918;2023-09-18T03:30:14;14.68;;;5.90;;
50773;SDS011;36745;48.544;8.918;2023-09-18T03:33:36;11.70;;;5.72;;
50773;SDS011;36745;48.544;8.918;2023-09-18T03:36:56;14.55;;;5.72;;
50773;SDS011;36745;48.544;8.918;2023-09-18T03:40:17;10.30;;;5.50;;
50773;SDS011;36745;48.544;8.918;2023-09-18T03:43:37;15.05;;;6.22;;
50773;SDS011;36745;48.544;8.918;2023-09-18T03:46:57;12.27;;;5.88;;
50773;SDS011;36745;48.544;8.918;2023-09-18T03:50:17;11.40;;;5.65;;
50773;SDS011;36745;48.544;8.918;2023-09-18T03:53:37;8.27;;;4.63;;
50773;SDS011;36745;48.544;8.918;2023-09-18T03:56:57;11.88;;;4.78;;
50773;SDS011;36745;48.544;8.918;2023-09-18T04:00:17;16.73;;;4.93;;
50773;SDS011;36745;48.544;8.918;2023-09-18T04:03:37;13.80;;;4.25;;
50773;SDS011;36745;48.544;8.918;2023-09-18T04:06:56;8.55;;;4.13;;
50773;SDS011;36745;48.544;8.918;2023-09-18T04:10:16;10.70;;;3.58;;
50773;SDS011;36745;48.544;8.918;2023-09-18T04:13:42;15.68;;;5.85;;
50773;SDS011;36745;48.544;8.918;2023-09-18T04:17:02;11.02;;;6.10;;
50773;SDS011;36745;48.544;8.918;2023-09-18T04:20:21;21.85;;;8.98;;
50773;SDS011;36745;48.544;8.918;2023-09-18T04:23:42;21.98;;;8.30;;
50773;SDS011;36745;48.544;8.918;2023-09-18T04:27:02;17.95;;;7.05;;
50773;SDS011;36745;48.544;8.918;2023-09-18T04:30:21;13.23;;;5.13;;
50773;SDS011;36745;48.544;8.918;2023-09-18T04:33:41;14.45;;;6.43;;
50773;SDS011;36745;48.544;8.918;2023-09-18T04:37:01;12.57;;;5.97;;
50773;SDS011;36745;48.544;8.918;2023-09-18T04:40:22;9.65;;;5.03;;
50773;SDS011;36745;48.544;8.918;2023-09-18T04:43:42;11.43;;;4.72;;
50773;SDS011;36745;48.544;8.918;2023-09-18T04:47:02;12.50;;;4.78;;
50773;SDS011;36745;48.544;8.918;2023-09-18T04:50:22;8.65;;;3.95;;
50773;SDS011;36745;48.544;8.918;2023-09-18T04:53:42;11.45;;;3.78;;
50773;SDS011;36745;48.544;8.918;2023-09-18T04:57:02;8.52;;;4.22;;
50773;SDS011;36745;48.544;8.918;2023-09-18T05:00:23;12.30;;;4.20;;
50773;SDS011;36745;48.544;8.918;2023-09-18T05:03:44;7.50;;;3.72;;
50773;SDS011;36745;48.544;8.918;2023-09-18T05:07:04;9.82;;;3.55;;
50773;SDS011;36745;48.544;8.918;2023-09-18T05:10:24;10.55;;;4.35;;
50773;SDS011;36745;48.544;8.918;2023-09-18T05:13:43;11.55;;;4.40;;
50773;SDS011;36745;48.544;8.918;2023-09-18T05:17:03;20.30;;;8.52;;
50773;SDS011;36745;48.544;8.918;2023-09-18T05:20:24;10.95;;;4.80;;
50773;SDS011;36745;48.544;8.918;2023-09-18T05:23:47;12.13;;;4.38;;
50773;SDS011;36745;48.544;8.918;2023-09-18T05:27:07;11.20;;;4.15;;
50773;SDS011;36745;48.544;8.918;2023-09-18T05:30:28;8.18;;;3.58;;
50773;SDS011;36745;48.544;8.918;2023-09-18T05:33:53;11.73;;;3.90;;
50773;SDS011;36745;48.544;8.918;2023-09-18T05:37:13;7.75;;;3.97;;
50773;SDS011;36745;48.544;8.918;2023-09-18T05:40:33;8.50;;;3.38;;
50773;SDS011;36745;48.544;8.918;2023-09-18T05:43:52;12.27;;;3.95;;
50773;SDS011;36745;48.544;8.918;2023-09-18T05:47:13;10.73;;;3.47;;
50773;SDS011;36745;48.544;8.918;2023-09-18T05:50:33;11.25;;;3.63;;
50773;SDS011;36745;48.544;8.918;2023-09-18T05:53:55;10.95;;;3.60;;
50773;SDS011;36745;48.544;8.918;2023-09-18T05:57:15;11.88;;;4.05;;
50773;SDS011;36745;48.544;8.918;2023-09-18T06:00:36;9.77;;;3.60;;
50773;SDS011;36745;48.544;8.918;2023-09-18T06:03:56;11.10;;;4.20;;
50773;SDS011;36745;48.544;8.918;2023-09-18T06:07:15;13.45;;;4.68;;
50773;SDS011;36745;48.544;8.918;2023-09-18T06:10:35;11.02;;;4.80;;
50773;SDS011;36745;48.544;8.918;2023-09-18T06:13:55;13.80;;;4.47;;
50773;SDS011;36745;48.544;8.918;2023-09-18T06:17:15;10.77;;;3.60;;
50773;SDS011;36745;48.544;8.918;2023-09-18T06:20:35;12.32;;;4.20;;
50773;SDS011;36745;48.544;8.918;2023-09-18T06:23:55;9.43;;;4.15;;
50773;SDS011;36745;48.544;8.918;2023-09-18T06:27:15;17.08;;;4.80;;
50773;SDS011;36745;48.544;8.918;2023-09-18T06:30:35;14.52;;;4.60;;
50773;SDS011;36745;48.544;8.918;2023-09-18T06:33:55;12.65;;;3.92;;
50773;SDS011;36745;48.544;8.918;2023-09-18T06:37:15;12.65;;;3.78;;
50773;SDS011;36745;48.544;8.918;2023-09-18T06:40:35;9.88;;;4.07;;
50773;SDS011;36745;48.544;8.918;2023-09-18T06:43:55;11.57;;;3.90;;
50773;SDS011;36745;48.544;8.918;2023-09-18T06:47:16;11.80;;;3.50;;
50773;SDS011;36745;48.544;8.918;2023-09-18T06:50:38;13.68;;;6.32;;
50773;SDS011;36745;48.544;8.918;2023-09-18T06:53:59;11.77;;;4.28;;
50773;SDS011;36745;48.544;8.918;2023-09-18T06:57:22;15.43;;;4.40;;
50773;SDS011;36745;48.544;8.918;2023-09-18T07:00:41;8.98;;;3.92;;
50773;SDS011;36745;48.544;8.918;2023-09-18T07:04:01;11.10;;;4.25;;
50773;SDS011;36745;48.544;8.918;2023-09-18T07:07:23;11.68;;;4.40;;
50773;SDS011;36745;48.544;8.918;2023-09-18T07:10:45;11.80;;;4.10;;
50773;SDS011;36745;48.544;8.918;2023-09-18T07:14:04;12.30;;;4.50;;
50773;SDS011;36745;48.544;8.918;2023-09-18T07:17:25;14.10;;;4.78;;
50773;SDS011;36745;48.544;8.918;2023-09-18T07:20:45;9.18;;;3.97;;
50773;SDS011;36745;48.544;8.918;2023-09-18T07:24:05;11.27;;;4.13;;
50773;SDS011;36745;48.544;8.918;2023-09-18T07:27:25;13.48;;;3.55;;
50773;SDS011;36745;48.544;8.918;2023-09-18T07:30:46;13.65;;;4.35;;
50773;SDS011;36745;48.544;8.918;2023-09-18T07:34:06;11.35;;;4.90;;
50773;SDS011;36745;48.544;8.918;2023-09-18T07:37:26;10.55;;;4.25;;
50773;SDS011;36745;48.544;8.918;2023-09-18T07:40:46;9.35;;;3.05;;
50773;SDS011;36745;48.544;8.918;2023-09-18T07:44:06;10.55;;;3.33;;
50773;SDS011;36745;48.544;8.918;2023-09-18T07:47:26;11.30;;;2.90;;
50773;SDS011;36745;48.544;8.918;2023-09-18T07:50:46;8.77;;;2.28;;
50773;SDS011;36745;48.544;8.918;2023-09-18T07:54:08;12.60;;;2.55;;
50773;SDS011;36745;48.544;8.918;2023-09-18T07:57:28;7.75;;;1.92;;
50773;SDS011;36745;48.544;8.918;2023-09-18T08:00:49;6.78;;;2.25;;
50773;SDS011;36745;48.544;8.918;2023-09-18T08:04:13;4.35;;;1.90;;
50773;SDS011;36745;48.544;8.918;2023-09-18T08:07:32;5.68;;;1.77;;
50773;SDS011;36745;48.544;8.918;2023-09-18T08:10:52;6.85;;;1.85;;
50773;SDS011;36745;48.544;8.918;2023-09-18T08:14:13;7.22;;;1.75;;
50773;SDS011;36745;48.544;8.918;2023-09-18T08:17:32;6.45;;;1.90;;
50773;SDS011;36745;48.544;8.918;2023-09-18T08:20:52;6.40;;;1.65;;
50773;SDS011;36745;48.544;8.918;2023-09-18T08:24:14;8.50;;;1.80;;
50773;SDS011;36745;48.544;8.918;2023-09-18T08:27:33;5.38;;;1.85;;
50773;SDS011;36745;48.544;8.918;2023-09-18T08:30:55;7.57;;;2.35;;
50773;SDS011;36745;48.544;8.918;2023-09-18T08:34:14;9.80;;;2.35;;
50773;SDS011;36745;48.544;8.918;2023-09-18T08:37:34;5.20;;;1.85;;
50773;SDS011;36745;48.544;8.918;2023-09-18T08:40:54;7.75;;;2.20;;
50773;SDS011;36745;48.544;8.918;2023-09-18T08:44:14;6.30;;;2.25;;
50773;SDS011;36745;48.544;8.918;2023-09-18T08:47:34;6.88;;;2.10;;
50773;SDS011;36745;48.544;8.918;2023-09-18T08:50:55;6.72;;;2.03;;
50773;SDS011;36745;48.544;8.918;2023-09-18T08:54:15;5.32;;;2.25;;
50773;SDS011;36745;48.544;8.918;2023-09-18T08:57:35;4.82;;;2.20;;
50773;SDS011;36745;48.544;8.918;2023-09-18T09:00:56;5.68;;;1.95;;
50773;SDS011;36745;48.544;8.918;2023-09-18T09:04:17;6.85;;;2.80;;
50773;SDS011;36745;48.544;8.918;2023-09-18T09:07:37;8.27;;;2.55;;
50773;SDS011;36745;48.544;8.918;2023-09-18T09:10:56;6.80;;;2.00;;
50773;SDS011;36745;48.544;8.918;2023-09-18T09:14:19;8.93;;;2.20;;
50773;SDS011;36745;48.544;8.918;2023-09-18T09:17:42;4.13;;;2.20;;
50773;SDS011;36745;48.544;8.918;2023-09-18T09:21:03;5.10;;;1.80;;
50773;SDS011;36745;48.544;8.918;2023-09-18T09:24:41;4.68;;;2.00;;
50773;SDS011;36745;48.544;8.918;2023-09-18T09:28:03;7.13;;;2.63;;
50773;SDS011;36745;48.544;8.918;2023-09-18T09:34:48;9.20;;;2.60;;
50773;SDS011;36745;48.544;8.918;2023-09-18T09:41:31;8.52;;;2.50;;
50773;SDS011;36745;48.544;8.918;2023-09-18T09:45:01;3.83;;;2.30;;
50773;SDS011;36745;48.544;8.918;2023-09-18T09:48:22;9.70;;;2.42;;
50773;SDS011;36745;48.544;8.918;2023-09-18T09:51:44;6.85;;;2.65;;
50773;SDS011;36745;48.544;8.918;2023-09-18T09:55:07;3.70;;;2.00;;
50773;SDS011;36745;48.544;8.918;2023-09-18T09:58:37;5.32;;;2.30;;
50773;SDS011;36745;48.544;8.918;2023-09-18T10:02:00;8.10;;;2.17;;
50773;SDS011;36745;48.544;8.918;2023-09-18T10:05:29;4.57;;;1.80;;
50773;SDS011;36745;48.544;8.918;2023-09-18T10:08:52;4.53;;;1.90;;
50773;SDS011;36745;48.544;8.918;2023-09-18T10:12:15;8.40;;;2.40;;
50773;SDS011;36745;48.544;8.918;2023-09-18T10:15:39;6.18;;;2.15;;
50773;SDS011;36745;48.544;8.918;2023-09-18T10:19:17;3.85;;;2.10;;
50773;SDS011;36745;48.544;8.918;2023-09-18T10:22:45;6.47;;;2.05;;
50773;SDS011;36745;48.544;8.918;2023-09-18T10:26:09;7.43;;;2.08;;
50773;SDS011;36745;48.544;8.918;2023-09-18T10:29:31;6.55;;;1.98;;
50773;SDS011;36745;48.544;8.918;2023-09-18T10:32:52;8.95;;;2.05;;
50773;SDS011;36745;48.544;8.918;2023-09-18T10:36:12;6.18;;;2.30;;
50773;SDS011;36745;48.544;8.918;2023-09-18T10:39:39;5.93;;;2.22;;
50773;SDS011;36745;48.544;8.918;2023-09-18T10:43:00;3.28;;;2.08;;
50773;SDS011;36745;48.544;8.918;2023-09-18T10:46:25;4.28;;;2.30;;
50773;SDS011;36745;48.544;8.918;2023-09-18T10:49:46;3.72;;;1.95;;
50773;SDS011;36745;48.544;8.918;2023-09-18T10:53:05;3.92;;;1.67;;
50773;SDS011;36745;48.544;8.918;2023-09-18T10:56:25;4.07;;;1.80;;
50773;SDS011;36745;48.544;8.918;2023-09-18T10:59:45;2.40;;;1.52;;
50773;SDS011;36745;48.544;8.918;2023-09-18T11:03:15;4.38;;;1.65;;
50773;SDS011;36745;48.544;8.918;2023-09-18T11:10:24;5.65;;;1.70;;
50773;SDS011;36745;48.544;8.918;2023-09-18T11:13:52;4.03;;;1.48;;
50773;SDS011;36745;48.544;8.918;2023-09-18T11:21:09;3.92;;;1.40;;
50773;SDS011;36745;48.544;8.918;2023-09-18T11:27:52;4.32;;;2.08;;
50773;SDS011;36745;48.544;8.918;2023-09-18T11:31:19;11.10;;;4.60;;
50773;SDS011;36745;48.544;8.918;2023-09-18T11:34:41;3.45;;;1.55;;
50773;SDS011;36745;48.544;8.918;2023-09-18T11:38:06;3.92;;;1.27;;
50773;SDS011;36745;48.544;8.918;2023-09-18T11:41:33;3.15;;;1.45;;
50773;SDS011;36745;48.544;8.918;2023-09-18T11:44:57;2.33;;;1.23;;
50773;SDS011;36745;48.544;8.918;2023-09-18T11:48:18;11.13;;;4.55;;
50773;SDS011;36745;48.544;8.918;2023-09-18T11:51:38;4.75;;;1.73;;
50773;SDS011;36745;48.544;8.918;2023-09-18T11:54:59;2.38;;;1.40;;
50773;SDS011;36745;48.544;8.918;2023-09-18T11:58:20;3.35;;;1.60;;
50773;SDS011;36745;48.544;8.918;2023-09-18T12:01:42;4.22;;;1.40;;
50773;SDS011;36745;48.544;8.918;2023-09-18T12:05:09;4.18;;;1.25;;
50773;SDS011;36745;48.544;8.918;2023-09-18T12:08:30;4.00;;;1.35;;
50773;SDS011;36745;48.544;8.918;2023-09-18T12:11:51;1.65;;;1.35;;
50773;SDS011;36745;48.544;8.918;2023-09-18T12:15:13;5.18;;;1.42;;
50773;SDS011;36745;48.544;8.918;2023-09-18T12:18:36;4.88;;;1.25;;
50773;SDS011;36745;48.544;8.918;2023-09-18T12:21:57;6.38;;;1.85;;
50773;SDS011;36745;48.544;8.918;2023-09-18T12:25:17;3.00;;;1.40;;
50773;SDS011;36745;48.544;8.918;2023-09-18T12:28:42;4.15;;;1.65;;
50773;SDS011;36745;48.544;8.918;2023-09-18T12:32:02;8.15;;;1.20;;
50773;SDS011;36745;48.544;8.918;2023-09-18T12:35:25;91.43;;;5.73;;
50773;SDS011;36745;48.544;8.918;2023-09-18T12:42:20;5.50;;;1.60;;
50773;SDS011;36745;48.544;8.918;2023-09-18T12:45:40;6.80;;;1.77;;
50773;SDS011;36745;48.544;8.918;2023-09-18T12:49:14;8.70;;;1.30;;
50773;SDS011;36745;48.544;8.918;2023-09-18T12:52:37;6.38;;;1.40;;
50773;SDS011;36745;48.544;8.918;2023-09-18T12:56:07;3.55;;;1.48;;
50773;SDS011;36745;48.544;8.918;2023-09-18T12:59:34;3.63;;;1.35;;
50773;SDS011;36745;48.544;8.918;2023-09-18T13:02:55;4.80;;;1.40;;
50773;SDS011;36745;48.544;8.918;2023-09-18T13:06:15;4.97;;;1.13;;
50773;SDS011;36745;48.544;8.918;2023-09-18T13:09:37;2.22;;;1.27;;
50773;SDS011;36745;48.544;8.918;2023-09-18T13:12:56;7.75;;;3.22;;
50773;SDS011;36745;48.544;8.918;2023-09-18T13:16:18;8.20;;;2.53;;
50773;SDS011;36745;48.544;8.918;2023-09-18T13:19:41;3.75;;;1.50;;
50773;SDS011;36745;48.544;8.918;2023-09-18T13:23:01;11.43;;;4.63;;
50773;SDS011;36745;48.544;8.918;2023-09-18T13:26:22;4.03;;;1.08;;
50773;SDS011;36745;48.544;8.918;2023-09-18T13:29:42;5.40;;;1.50;;
50773;SDS011;36745;48.544;8.918;2023-09-18T13:33:09;4.97;;;1.50;;
50773;SDS011;36745;48.544;8.918;2023-09-18T13:36:30;7.18;;;1.40;;
50773;SDS011;36745;48.544;8.918;2023-09-18T13:39:50;3.38;;;1.13;;
50773;SDS011;36745;48.544;8.918;2023-09-18T13:43:10;3.67;;;1.15;;
50773;SDS011;36745;48.544;8.918;2023-09-18T13:46:31;2.20;;;1.10;;
50773;SDS011;36745;48.544;8.918;2023-09-18T13:49:55;7.88;;;3.42;;
50773;SDS011;36745;48.544;8.918;2023-09-18T13:53:19;10.13;;;3.35;;
50773;SDS011;36745;48.544;8.918;2023-09-18T13:56:38;3.72;;;1.65;;
50773;SDS011;36745;48.544;8.918;2023-09-18T13:59:59;7.00;;;1.40;;
50773;SDS011;36745;48.544;8.918;2023-09-18T14:03:19;3.20;;;1.40;;
50773;SDS011;36745;48.544;8.918;2023-09-18T14:06:39;4.18;;;1.10;;
50773;SDS011;36745;48.544;8.918;2023-09-18T14:09:59;1.67;;;1.13;;
50773;SDS011;36745;48.544;8.918;2023-09-18T14:13:22;3.42;;;1.30;;
50773;SDS011;36745;48.544;8.918;2023-09-18T14:16:42;1.63;;;1.25;;
50773;SDS011;36745;48.544;8.918;2023-09-18T14:20:03;2.55;;;1.23;;
50773;SDS011;36745;48.544;8.918;2023-09-18T14:23:26;1.60;;;1.10;;
50773;SDS011;36745;48.544;8.918;2023-09-18T14:26:46;4.93;;;1.52;;
50773;SDS011;36745;48.544;8.918;2023-09-18T14:30:12;23.58;;;2.10;;
50773;SDS011;36745;48.544;8.918;2023-09-18T14:33:33;2.75;;;1.10;;
50773;SDS011;36745;48.544;8.918;2023-09-18T14:36:54;4.28;;;1.10;;
50773;SDS011;36745;48.544;8.918;2023-09-18T14:40:14;4.43;;;1.40;;
50773;SDS011;36745;48.544;8.918;2023-09-18T14:43:34;4.03;;;1.00;;
50773;SDS011;36745;48.544;8.918;2023-09-18T14:46:54;2.85;;;1.10;;
50773;SDS011;36745;48.544;8.918;2023-09-18T14:50:14;7.28;;;1.20;;
50773;SDS011;36745;48.544;8.918;2023-09-18T14:53:34;7.55;;;1.30;;
50773;SDS011;36745;48.544;8.918;2023-09-18T14:56:53;6.90;;;1.60;;
50773;SDS011;36745;48.544;8.918;2023-09-18T15:00:13;2.22;;;1.02;;
50773;SDS011;36745;48.544;8.918;2023-09-18T15:03:33;2.72;;;1.10;;
50773;SDS011;36745;48.544;8.918;2023-09-18T15:06:53;5.53;;;1.20;;
50773;SDS011;36745;48.544;8.918;2023-09-18T15:10:13;2.38;;;1.10;;
50773;SDS011;36745;48.544;8.918;2023-09-18T15:13:33;1.52;;;1.10;;
50773;SDS011;36745;48.544;8.918;2023-09-18T15:16:58;3.15;;;1.05;;
50773;SDS011;36745;48.544;8.918;2023-09-18T15:20:18;3.28;;;1.25;;
50773;SDS011;36745;48.544;8.918;2023-09-18T15:23:38;2.58;;;2.00;;
50773;SDS011;36745;48.544;8.918;2023-09-18T15:26:58;1.98;;;1.17;;
50773;SDS011;36745;48.544;8.918;2023-09-18T15:30:18;2.30;;;1.25;;
50773;SDS011;36745;48.544;8.918;2023-09-18T15:33:38;3.05;;;1.38;;
50773;SDS011;36745;48.544;8.918;2023-09-18T15:36:59;3.97;;;0.98;;
50773;SDS011;36745;48.544;8.918;2023-09-18T15:43:42;2.30;;;1.20;;
50773;SDS011;36745;48.544;8.918;2023-09-18T15:47:04;1.70;;;1.05;;
50773;SDS011;36745;48.544;8.918;2023-09-18T15:50:24;3.85;;;1.40;;
50773;SDS011;36745;48.544;8.918;2023-09-18T15:53:44;4.35;;;1.45;;
50773;SDS011;36745;48.544;8.918;2023-09-18T15:57:04;2.00;;;1.23;;
50773;SDS011;36745;48.544;8.918;2023-09-18T16:00:23;3.45;;;1.30;;
50773;SDS011;36745;48.544;8.918;2023-09-18T16:03:43;3.72;;;1.50;;
50773;SDS011;36745;48.544;8.918;2023-09-18T16:07:06;3.10;;;1.25;;
50773;SDS011;36745;48.544;8.918;2023-09-18T16:10:31;2.00;;;0.98;;
50773;SDS011;36745;48.544;8.918;2023-09-18T16:13:53;2.15;;;1.10;;
50773;SDS011;36745;48.544;8.918;2023-09-18T16:17:15;4.32;;;1.30;;
50773;SDS011;36745;48.544;8.918;2023-09-18T16:20:35;1.95;;;1.02;;
50773;SDS011;36745;48.544;8.918;2023-09-18T16:23:55;2.70;;;1.25;;
50773;SDS011;36745;48.544;8.918;2023-09-18T16:27:15;3.08;;;1.33;;
50773;SDS011;36745;48.544;8.918;2023-09-18T16:30:35;6.55;;;1.55;;
50773;SDS011;36745;48.544;8.918;2023-09-18T16:33:54;6.53;;;2.75;;
50773;SDS011;36745;48.544;8.918;2023-09-18T16:37:14;5.80;;;1.60;;
50773;SDS011;36745;48.544;8.918;2023-09-18T16:40:34;4.35;;;1.20;;
50773;SDS011;36745;48.544;8.918;2023-09-18T16:43:54;2.72;;;1.13;;
50773;SDS011;36745;48.544;8.918;2023-09-18T16:47:14;3.15;;;1.58;;
50773;SDS011;36745;48.544;8.918;2023-09-18T16:50:33;3.28;;;1.90;;
50773;SDS011;36745;48.544;8.918;2023-09-18T16:53:53;4.07;;;2.38;;
50773;SDS011;36745;48.544;8.918;2023-09-18T16:57:14;10.00;;;4.45;;
50773;SDS011;36745;48.544;8.918;2023-09-18T17:00:34;11.48;;;5.43;;
50773;SDS011;36745;48.544;8.918;2023-09-18T17:03:55;8.00;;;3.33;;
50773;SDS011;36745;48.544;8.918;2023-09-18T17:07:14;5.75;;;2.70;;
50773;SDS011;36745;48.544;8.918;2023-09-18T17:10:34;5.70;;;3.42;;
50773;SDS011;36745;48.544;8.918;2023-09-18T17:13:54;4.82;;;1.80;;
50773;SDS011;36745;48.544;8.918;2023-09-18T17:17:14;4.35;;;2.33;;
50773;SDS011;36745;48.544;8.918;2023-09-18T17:20:34;4.57;;;1.80;;
50773;SDS011;36745;48.544;8.918;2023-09-18T17:23:54;4.72;;;1.95;;
50773;SDS011;36745;48.544;8.918;2023-09-18T17:27:14;2.83;;;1.60;;
50773;SDS011;36745;48.544;8.918;2023-09-18T17:30:33;2.80;;;1.40;;
50773;SDS011;36745;48.544;8.918;2023-09-18T17:33:53;4.90;;;2.25;;
50773;SDS011;36745;48.544;8.918;2023-09-18T17:37:15;3.63;;;1.67;;
50773;SDS011;36745;48.544;8.918;2023-09-18T17:40:36;5.97;;;2.47;;
50773;SDS011;36745;48.544;8.918;2023-09-18T17:43:55;3.63;;;1.92;;
50773;SDS011;36745;48.544;8.918;2023-09-18T17:47:15;5.65;;;2.40;;
50773;SDS011;36745;48.544;8.918;2023-09-18T17:50:35;16.30;;;9.10;;
50773;SDS011;36745;48.544;8.918;2023-09-18T17:53:55;10.18;;;4.47;;
50773;SDS011;36745;48.544;8.918;2023-09-18T17:57:15;6.85;;;2.60;;
50773;SDS011;36745;48.544;8.918;2023-09-18T18:00:35;2.75;;;1.88;;
50773;SDS011;36745;48.544;8.918;2023-09-18T18:03:54;4.47;;;1.90;;
50773;SDS011;36745;48.544;8.918;2023-09-18T18:07:17;3.20;;;2.10;;
50773;SDS011;36745;48.544;8.918;2023-09-18T18:10:43;3.53;;;1.90;;
50773;SDS011;36745;48.544;8.918;2023-09-18T18:14:04;3.65;;;2.30;;
50773;SDS011;36745;48.544;8.918;2023-09-18T18:17:24;3.60;;;1.67;;
50773;SDS011;36745;48.544;8.918;2023-09-18T18:20:43;3.42;;;2.10;;
50773;SDS011;36745;48.544;8.918;2023-09-18T18:24:05;5.45;;;1.65;;
50773;SDS011;36745;48.544;8.918;2023-09-18T18:27:26;4.35;;;1.60;;
50773;SDS011;36745;48.544;8.918;2023-09-18T18:30:49;5.32;;;2.78;;
50773;SDS011;36745;48.544;8.918;2023-09-18T18:34:09;4.82;;;2.30;;
50773;SDS011;36745;48.544;8.918;2023-09-18T18:37:29;7.20;;;2.80;;
50773;SDS011;36745;48.544;8.918;2023-09-18T18:40:57;13.60;;;7.85;;
50773;SDS011;36745;48.544;8.918;2023-09-18T18:44:17;6.22;;;2.55;;
50773;SDS011;36745;48.544;8.918;2023-09-18T18:47:37;3.83;;;1.80;;
50773;SDS011;36745;48.544;8.918;2023-09-18T18:51:01;4.65;;;2.28;;
50773;SDS011;36745;48.544;8.918;2023-09-18T18:54:31;7.57;;;2.22;;
50773;SDS011;36745;48.544;8.918;2023-09-18T18:57:51;3.92;;;1.88;;
50773;SDS011;36745;48.544;8.918;2023-09-18T19:01:13;4.28;;;1.63;;
50773;SDS011;36745;48.544;8.918;2023-09-18T19:04:33;3.80;;;1.63;;
50773;SDS011;36745;48.544;8.918;2023-09-18T19:07:54;5.18;;;1.60;;
50773;SDS011;36745;48.544;8.918;2023-09-18T19:11:14;5.15;;;1.67;;
50773;SDS011;36745;48.544;8.918;2023-09-18T19:14:34;2.35;;;1.00;;
50773;SDS011;36745;48.544;8.918;2023-09-18T19:17:54;4.68;;;1.45;;
50773;SDS011;36745;48.544;8.918;2023-09-18T19:21:13;3.83;;;1.48;;
50773;SDS011;36745;48.544;8.918;2023-09-18T19:24:33;6.65;;;1.42;;
50773;SDS011;36745;48.544;8.918;2023-09-18T19:27:53;4.57;;;1.30;;
50773;SDS011;36745;48.544;8.918;2023-09-18T19:31:18;2.42;;;1.50;;
50773;SDS011;36745;48.544;8.918;2023-09-18T19:34:38;4.32;;;1.73;;
50773;SDS011;36745;48.544;8.918;2023-09-18T19:37:58;4.18;;;1.88;;
50773;SDS011;36745;48.544;8.918;2023-09-18T19:41:17;3.10;;;1.67;;
50773;SDS011;36745;48.544;8.918;2023-09-18T19:44:38;3.63;;;1.75;;
50773;SDS011;36745;48.544;8.918;2023-09-18T19:47:58;6.13;;;1.75;;
50773;SDS011;36745;48.544;8.918;2023-09-18T19:51:17;4.88;;;1.70;;
50773;SDS011;36745;48.544;8.918;2023-09-18T19:54:37;2.92;;;1.67;;
50773;SDS011;36745;48.544;8.918;2023-09-18T19:57:57;3.05;;;1.05;;
50773;SDS011;36745;48.544;8.918;2023-09-18T20:01:18;2.92;;;0.77;;
50773;SDS011;36745;48.544;8.918;2023-09-18T20:04:38;1.98;;;0.85;;
50773;SDS011;36745;48.544;8.918;2023-09-18T20:07:58;2.00;;;0.93;;
50773;SDS011;36745;48.544;8.918;2023-09-18T20:11:18;1.75;;;0.80;;
50773;SDS011;36745;48.544;8.918;2023-09-18T20:14:38;8.60;;;3.33;;
50773;SDS011;36745;48.544;8.918;2023-09-18T20:18:01;1.48;;;0.88;;
50773;SDS011;36745;48.544;8.918;2023-09-18T20:21:21;3.72;;;1.10;;
50773;SDS011;36745;48.544;8.918;2023-09-18T20:24:42;2.28;;;0.70;;
50773;SDS011;36745;48.544;8.918;2023-09-18T20:28:02;5.18;;;1.10;;
50773;SDS011;36745;48.544;8.918;2023-09-18T20:31:21;4.20;;;0.70;;